createdAt,value
2022-10-28T00:00:25.542Z,10.69
2022-10-28T00:03:35.205Z,10.70
2022-10-28T00:06:40.804Z,10.71
2022-10-28T00:09:47.240Z,10.71
2022-10-28T00:12:52.824Z,10.71
2022-10-28T00:15:59.350Z,10.69
2022-10-28T00:19:13.404Z,10.72
2022-10-28T00:22:19.852Z,10.72
2022-10-28T00:25:25.479Z,10.74
2022-10-28T00:28:32.463Z,10.75
2022-10-28T00:31:38.966Z,10.76
2022-10-28T00:34:48.197Z,10.79
2022-10-28T00:37:56.209Z,10.82
2022-10-28T00:41:03.357Z,10.85
2022-10-28T00:44:42.372Z,10.88
2022-10-28T00:47:56.089Z,10.88
2022-10-28T00:51:06.517Z,10.84
2022-10-28T00:54:14.989Z,10.84
2022-10-28T00:57:25.384Z,10.82
2022-10-28T01:00:32.055Z,10.81
2022-10-28T01:03:39.839Z,10.80
2022-10-28T01:06:49.898Z,10.79
2022-10-28T01:09:55.529Z,10.80
2022-10-28T01:13:13.121Z,10.79
2022-10-28T01:16:31.791Z,10.78
2022-10-28T01:20:03.361Z,10.77
2022-10-28T01:23:18.153Z,10.75
2022-10-28T01:26:44.366Z,10.76
2022-10-28T01:30:11.230Z,10.74
2022-10-28T01:33:29.318Z,10.69
2022-10-28T01:36:42.041Z,10.59
2022-10-28T01:39:55.522Z,10.54
2022-10-28T01:43:12.199Z,10.45
2022-10-28T01:46:23.903Z,10.32
2022-10-28T01:49:39.826Z,10.24
2022-10-28T01:52:48.358Z,10.14
2022-10-28T01:55:58.182Z,10.09
2022-10-28T01:59:10.445Z,10.04
2022-10-28T02:02:17.980Z,9.96
2022-10-28T02:05:42.887Z,9.93
2022-10-28T02:09:18.147Z,9.91
2022-10-28T02:12:29.876Z,9.88
2022-10-28T02:15:47.150Z,9.87
2022-10-28T02:19:03.362Z,9.89
2022-10-28T02:22:21.678Z,9.84
2022-10-28T02:25:35.625Z,9.81
2022-10-28T02:28:46.040Z,9.76
2022-10-28T02:31:55.248Z,9.70
2022-10-28T02:35:03.867Z,9.70
2022-10-28T02:38:18.716Z,9.71
2022-10-28T02:41:29.932Z,9.71
2022-10-28T02:44:41.602Z,9.70
2022-10-28T02:47:50.635Z,9.66
2022-10-28T02:51:01.086Z,9.69
2022-10-28T02:54:14.503Z,9.68
2022-10-28T02:57:24.804Z,9.69
2022-10-28T03:00:30.479Z,9.69
2022-10-28T03:03:37.138Z,9.68
2022-10-28T03:06:42.990Z,9.71
2022-10-28T03:09:52.442Z,9.73
2022-10-28T03:12:58.105Z,9.74
2022-10-28T03:16:06.567Z,9.73
2022-10-28T03:19:12.203Z,9.72
2022-10-28T03:22:18.772Z,9.72
2022-10-28T03:25:27.912Z,9.70
2022-10-28T03:28:34.362Z,9.75
2022-10-28T03:31:39.916Z,9.81
2022-10-28T03:34:47.539Z,9.85
2022-10-28T03:37:53.120Z,9.87
2022-10-28T03:41:03.326Z,9.90
2022-10-28T03:44:09.352Z,9.91
2022-10-28T03:47:15.808Z,9.90
2022-10-28T03:50:21.759Z,9.88
2022-10-28T03:53:31.144Z,9.90
2022-10-28T03:56:40.735Z,9.96
2022-10-28T03:59:47.206Z,9.99
2022-10-28T04:02:54.051Z,10.05
2022-10-28T04:06:00.694Z,10.10
2022-10-28T04:09:08.205Z,10.14
2022-10-28T04:12:17.465Z,10.16
2022-10-28T04:15:23.103Z,10.15
2022-10-28T04:18:29.839Z,10.15
2022-10-28T04:21:35.579Z,10.14
2022-10-28T04:24:42.024Z,10.15
2022-10-28T04:27:51.942Z,10.15
2022-10-28T04:30:58.633Z,10.11
2022-10-28T04:34:06.618Z,10.01
2022-10-28T04:37:16.930Z,9.94
2022-10-28T04:40:23.845Z,9.87
2022-10-28T04:43:33.080Z,9.77
2022-10-28T04:46:38.745Z,9.67
2022-10-28T04:49:45.497Z,9.62
2022-10-28T04:52:51.375Z,9.63
2022-10-28T04:56:00.720Z,9.70
2022-10-28T04:59:10.852Z,9.78
2022-10-28T05:02:17.788Z,9.87
2022-10-28T05:05:23.809Z,9.94
2022-10-28T05:08:31.377Z,10.00
2022-10-28T05:11:37.334Z,10.09
2022-10-28T05:14:48.994Z,10.16
2022-10-28T05:17:56.869Z,10.16
2022-10-28T05:21:03.599Z,10.24
2022-10-28T05:24:09.922Z,10.25
2022-10-28T05:27:16.581Z,10.25
2022-10-28T05:30:25.374Z,10.24
2022-10-28T05:33:33.785Z,10.18
2022-10-28T05:36:39.438Z,10.11
2022-10-28T05:39:48.391Z,10.04
2022-10-28T05:42:54.419Z,9.96
2022-10-28T05:46:04.020Z,9.87
2022-10-28T05:49:11.752Z,9.76
2022-10-28T05:52:18.250Z,9.67
2022-10-28T05:55:28.414Z,9.66
2022-10-28T05:58:35.017Z,9.75
2022-10-28T06:01:44.211Z,9.83
2022-10-28T06:04:50.972Z,9.93
2022-10-28T06:07:56.628Z,10.03
2022-10-28T06:11:02.096Z,10.08
2022-10-28T06:14:07.784Z,10.27
2022-10-28T06:17:17.113Z,10.38
2022-10-28T06:20:23.792Z,10.46
2022-10-28T06:23:30.272Z,10.49
2022-10-28T06:26:36.859Z,10.53
2022-10-28T06:29:43.306Z,10.55
2022-10-28T06:32:51.732Z,10.57
2022-10-28T06:35:58.726Z,10.58
2022-10-28T06:39:06.556Z,10.62
2022-10-28T06:42:13.160Z,10.67
2022-10-28T06:45:18.808Z,10.74
2022-10-28T06:48:29.560Z,10.81
2022-10-28T06:51:35.449Z,10.90
2022-10-28T06:55:14.055Z,10.98
2022-10-28T06:58:19.649Z,11.03
2022-10-28T07:01:26.346Z,11.11
2022-10-28T07:04:36.862Z,11.17
2022-10-28T07:07:43.621Z,11.22
2022-10-28T07:10:57.839Z,11.32
2022-10-28T07:14:07.872Z,11.33
2022-10-28T07:17:13.498Z,11.31
2022-10-28T07:20:22.753Z,11.38
2022-10-28T07:23:28.472Z,11.42
2022-10-28T07:26:34.935Z,11.51
2022-10-28T07:29:40.609Z,11.59
2022-10-28T07:32:47.108Z,11.67
2022-10-28T07:35:55.494Z,11.73
2022-10-28T07:39:04.005Z,11.85
2022-10-28T07:42:09.689Z,11.94
2022-10-28T07:45:16.202Z,12.03
2022-10-28T07:48:21.860Z,12.11
2022-10-28T07:51:31.505Z,12.12
2022-10-28T07:54:37.182Z,12.24
2022-10-28T07:57:43.913Z,12.36
2022-10-28T08:00:50.045Z,12.47
2022-10-28T08:03:56.580Z,12.59
2022-10-28T08:07:07.408Z,12.75
2022-10-28T08:10:13.879Z,12.84
2022-10-28T08:13:19.533Z,12.99
2022-10-28T08:16:29.184Z,13.12
2022-10-28T08:19:35.100Z,13.24
2022-10-28T08:22:44.669Z,13.38
2022-10-28T08:25:53.508Z,13.51
2022-10-28T08:29:13.660Z,13.65
2022-10-28T08:32:19.423Z,13.75
2022-10-28T08:35:28.585Z,13.90
2022-10-28T08:38:39.570Z,14.05
2022-10-28T08:41:55.586Z,14.18
2022-10-28T08:45:19.946Z,14.32
2022-10-28T08:48:33.269Z,14.39
2022-10-28T08:51:44.040Z,14.49
2022-10-28T08:54:56.683Z,14.58
2022-10-28T08:58:08.461Z,14.61
2022-10-28T09:01:23.361Z,14.66
2022-10-28T09:04:38.910Z,14.71
2022-10-28T09:07:45.756Z,14.74
2022-10-28T09:11:07.038Z,14.80
2022-10-28T09:14:31.855Z,14.88
2022-10-28T09:17:47.475Z,14.96
2022-10-28T09:21:12.631Z,14.98
2022-10-28T09:24:45.858Z,14.99
2022-10-28T09:28:23.219Z,15.01
2022-10-28T09:31:46.938Z,14.99
2022-10-28T09:35:12.121Z,15.01
2022-10-28T09:38:38.750Z,14.99
2022-10-28T09:42:04.014Z,14.99
2022-10-28T09:45:34.129Z,15.02
2022-10-28T09:49:04.080Z,15.04
2022-10-28T09:52:29.501Z,15.06
2022-10-28T09:55:53.493Z,15.11
2022-10-28T09:59:18.614Z,15.22
2022-10-28T10:03:00.550Z,15.28
2022-10-28T10:06:27.168Z,15.35
2022-10-28T10:09:48.519Z,15.45
2022-10-28T10:13:12.047Z,15.56
2022-10-28T10:16:41.740Z,15.68
2022-10-28T10:20:10.992Z,15.77
2022-10-28T10:23:34.435Z,15.87
2022-10-28T10:26:56.229Z,15.98
2022-10-28T10:30:21.782Z,16.04
2022-10-28T10:33:31.414Z,16.11
2022-10-28T10:37:00.059Z,16.18
2022-10-28T10:40:31.284Z,16.21
2022-10-28T10:43:55.620Z,16.26
2022-10-28T10:47:22.927Z,16.41
2022-10-28T10:53:56.006Z,16.60
2022-10-28T10:57:10.267Z,16.67
2022-10-28T11:00:20.561Z,16.73
2022-10-28T11:03:30.529Z,16.81
2022-10-28T11:06:41.903Z,16.89
2022-10-28T11:14:40.009Z,17.24
2022-10-28T11:17:59.098Z,17.41
2022-10-28T11:21:10.444Z,17.56
2022-10-28T11:24:33.365Z,17.74
2022-10-28T11:27:57.451Z,17.89
2022-10-28T11:31:27.921Z,18.09
2022-10-28T11:34:49.691Z,18.24
2022-10-28T11:38:09.458Z,18.35
2022-10-28T11:41:23.814Z,18.36
2022-10-28T11:44:45.188Z,18.34
2022-10-28T11:48:08.026Z,18.38
2022-10-28T11:51:37.882Z,18.43
2022-10-28T11:54:57.889Z,18.59
2022-10-28T11:58:16.192Z,18.68
2022-10-28T12:01:47.866Z,18.71
2022-10-28T12:05:06.234Z,18.74
2022-10-28T12:08:34.356Z,18.76
2022-10-28T12:11:51.015Z,18.68
2022-10-28T12:15:07.086Z,18.72
2022-10-28T12:18:24.963Z,18.93
2022-10-28T12:21:36.058Z,19.05
2022-10-28T12:24:47.359Z,19.08
2022-10-28T12:27:57.414Z,18.99
2022-10-28T12:31:06.503Z,18.96
2022-10-28T12:34:21.358Z,18.88
2022-10-28T12:37:34.221Z,18.81
2022-10-28T12:40:47.019Z,18.77
2022-10-28T12:43:57.600Z,18.74
2022-10-28T12:47:19.030Z,18.71
2022-10-28T12:50:34.841Z,18.54
2022-10-28T12:53:48.043Z,18.43
2022-10-28T12:57:01.359Z,18.38
2022-10-28T13:00:18.973Z,18.28
2022-10-28T13:03:26.026Z,18.17
2022-10-28T13:07:06.553Z,18.23
2022-10-28T13:10:27.531Z,18.27
2022-10-28T13:13:50.261Z,18.31
2022-10-28T13:17:22.806Z,18.37
2022-10-28T13:20:46.726Z,18.31
2022-10-28T13:24:01.143Z,18.27
2022-10-28T13:27:15.298Z,18.23
2022-10-28T13:30:24.066Z,18.16
2022-10-28T13:33:31.864Z,18.11
2022-10-28T13:36:42.965Z,18.08
2022-10-28T13:39:50.362Z,18.11
2022-10-28T13:43:00.441Z,18.13
2022-10-28T13:46:07.891Z,18.10
2022-10-28T13:49:26.427Z,18.16
2022-10-28T13:52:32.387Z,18.16
2022-10-28T13:55:46.925Z,18.14
2022-10-28T13:58:58.797Z,18.03
2022-10-28T14:02:36.255Z,17.91
2022-10-28T14:05:57.503Z,17.89
2022-10-28T14:09:06.363Z,17.74
2022-10-28T14:12:23.060Z,17.69
2022-10-28T14:15:35.099Z,17.65
2022-10-28T14:18:44.125Z,17.60
2022-10-28T14:22:03.984Z,17.53
2022-10-28T14:25:57.542Z,17.51
2022-10-28T14:29:04.195Z,17.42
2022-10-28T14:32:47.128Z,17.41
2022-10-28T14:36:19.057Z,17.35
2022-10-28T14:39:43.043Z,17.28
2022-10-28T14:43:06.851Z,17.21
2022-10-28T14:46:30.536Z,17.14
2022-10-28T14:49:41.733Z,17.07
2022-10-28T14:52:49.771Z,17.02
2022-10-28T14:56:10.863Z,16.99
2022-10-28T14:59:34.601Z,16.94
2022-10-28T15:02:41.341Z,16.85
2022-10-28T15:05:50.158Z,16.76
2022-10-28T15:08:57.673Z,16.68
2022-10-28T15:12:06.841Z,16.60
2022-10-28T15:15:20.346Z,16.51
2022-10-28T15:18:27.487Z,16.44
2022-10-28T15:21:36.717Z,16.35
2022-10-28T15:24:46.201Z,16.27
2022-10-28T15:27:55.433Z,16.19
2022-10-28T15:31:03.822Z,16.10
2022-10-28T15:34:23.760Z,16.03
2022-10-28T15:37:33.807Z,15.93
2022-10-28T15:40:40.394Z,15.79
2022-10-28T15:43:57.470Z,15.75
2022-10-28T15:47:10.559Z,15.65
2022-10-28T15:50:29.994Z,15.58
2022-10-28T15:53:42.128Z,15.47
2022-10-28T15:56:57.441Z,15.38
2022-10-28T16:00:23.005Z,15.29
2022-10-28T16:03:31.339Z,15.22
2022-10-28T16:06:40.220Z,15.19
2022-10-28T16:09:52.147Z,15.14
2022-10-28T16:12:58.919Z,15.06
2022-10-28T16:16:08.903Z,15.01
2022-10-28T16:19:30.610Z,14.98
2022-10-28T16:22:39.439Z,14.91
2022-10-28T16:25:48.727Z,14.83
2022-10-28T16:28:54.992Z,14.78
2022-10-28T16:32:03.593Z,14.72
2022-10-28T16:35:17.263Z,14.65
2022-10-28T16:38:23.832Z,14.62
2022-10-28T16:41:32.238Z,14.57
2022-10-28T16:44:39.374Z,14.52
2022-10-28T16:47:45.008Z,14.48
2022-10-28T16:50:54.101Z,14.45
2022-10-28T16:54:01.028Z,14.36
2022-10-28T16:57:11.517Z,14.30
2022-10-28T17:00:17.530Z,14.22
2022-10-28T17:03:24.447Z,14.17
2022-10-28T17:06:30.033Z,14.13
2022-10-28T17:09:36.887Z,14.08
2022-10-28T17:12:45.341Z,14.03
2022-10-28T17:15:55.744Z,13.98
2022-10-28T17:19:01.363Z,13.91
2022-10-28T17:22:10.307Z,13.88
2022-10-28T17:25:16.161Z,13.85
2022-10-28T17:28:25.620Z,13.85
2022-10-28T17:31:31.238Z,13.80
2022-10-28T17:34:37.729Z,13.75
2022-10-28T17:37:43.387Z,13.74
2022-10-28T17:40:57.130Z,13.71
2022-10-28T17:44:08.083Z,13.65
2022-10-28T17:47:15.122Z,13.59
2022-10-28T17:50:20.777Z,13.57
2022-10-28T17:53:27.324Z,13.56
2022-10-28T17:56:32.971Z,13.54
2022-10-28T17:59:42.169Z,13.48
2022-10-28T18:02:47.978Z,13.44
2022-10-28T18:05:54.972Z,13.41
2022-10-28T18:09:03.563Z,13.37
2022-10-28T18:12:11.832Z,13.34
2022-10-28T18:15:20.447Z,13.34
2022-10-28T18:18:29.072Z,13.35
2022-10-28T18:21:35.076Z,13.32
2022-10-28T18:24:41.524Z,13.27
2022-10-28T18:27:47.386Z,13.22
2022-10-28T18:30:56.642Z,13.18
2022-10-28T18:34:03.592Z,13.10
2022-10-28T18:37:11.964Z,13.09
2022-10-28T18:40:17.938Z,13.09
2022-10-28T18:43:24.769Z,13.06
2022-10-28T18:46:35.532Z,12.99
2022-10-28T18:49:41.986Z,12.97
2022-10-28T18:52:47.605Z,12.90
2022-10-28T18:55:54.618Z,12.86
2022-10-28T18:59:01.175Z,12.83
2022-10-28T19:02:12.076Z,12.81
2022-10-28T19:05:18.105Z,12.82
2022-10-28T19:08:24.564Z,12.80
2022-10-28T19:11:33.073Z,12.79
2022-10-28T19:14:39.797Z,12.78
2022-10-28T19:17:48.587Z,12.74
2022-10-28T19:20:57.360Z,12.73
2022-10-28T19:24:03.746Z,12.71
2022-10-28T19:27:10.543Z,12.68
2022-10-28T19:30:16.374Z,12.67
2022-10-28T19:33:25.757Z,12.65
2022-10-28T19:36:32.795Z,12.63
2022-10-28T19:39:39.249Z,12.63
2022-10-28T19:42:45.158Z,12.60
2022-10-28T19:45:51.953Z,12.62
2022-10-28T19:49:03.552Z,12.62
2022-10-28T19:52:10.148Z,12.58
2022-10-28T19:55:15.804Z,12.55
2022-10-28T19:58:22.328Z,12.56
2022-10-28T20:01:29.863Z,12.54
2022-10-28T20:04:39.682Z,12.51
2022-10-28T20:07:45.281Z,12.49
2022-10-28T20:11:00.625Z,12.48
2022-10-28T20:14:10.897Z,12.46
2022-10-28T20:17:17.728Z,12.46
2022-10-28T20:20:26.747Z,12.47
2022-10-28T20:23:33.444Z,12.47
2022-10-28T20:26:40.691Z,12.46
2022-10-28T20:29:47.185Z,12.43
2022-10-28T20:32:55.752Z,12.42
2022-10-28T20:36:06.781Z,12.42
2022-10-28T20:39:15.739Z,12.40
2022-10-28T20:42:22.219Z,12.39
2022-10-28T20:45:27.821Z,12.39
2022-10-28T20:48:34.486Z,12.37
2022-10-28T20:51:43.033Z,12.38
2022-10-28T20:54:49.514Z,12.38
2022-10-28T20:57:55.156Z,12.38
2022-10-28T21:01:06.519Z,12.34
2022-10-28T21:04:14.026Z,12.33
2022-10-28T21:07:23.219Z,12.33
2022-10-28T21:10:28.982Z,12.28
2022-10-28T21:13:35.939Z,12.25
2022-10-28T21:16:41.657Z,12.22
2022-10-28T21:19:48.190Z,12.20
2022-10-28T21:22:56.970Z,12.23
2022-10-28T21:26:06.292Z,12.22
2022-10-28T21:29:11.883Z,12.22
2022-10-28T21:32:18.383Z,12.17
2022-10-28T21:35:24.802Z,12.11
2022-10-28T21:38:37.465Z,12.09
2022-10-28T21:41:43.075Z,12.08
2022-10-28T21:44:49.529Z,12.07
2022-10-28T21:47:57.760Z,12.09
2022-10-28T21:51:09.878Z,12.08
2022-10-28T21:54:23.022Z,12.08
2022-10-28T21:57:33.064Z,12.05
2022-10-28T22:00:39.332Z,12.04
2022-10-28T22:03:46.003Z,12.04
2022-10-28T22:06:52.389Z,12.04
2022-10-28T22:10:03.854Z,12.03
2022-10-28T22:13:09.782Z,12.03
2022-10-28T22:16:17.706Z,12.01
2022-10-28T22:19:23.965Z,12.01
2022-10-28T22:22:31.432Z,12.00
2022-10-28T22:25:39.781Z,12.01
2022-10-28T22:28:46.469Z,12.02
2022-10-28T22:31:52.362Z,12.07
2022-10-28T22:34:58.803Z,12.09
2022-10-28T22:38:06.266Z,12.10
2022-10-28T22:41:20.585Z,12.12
2022-10-28T22:44:26.166Z,12.09
2022-10-28T22:47:32.635Z,12.08
2022-10-28T22:50:38.254Z,12.08
2022-10-28T22:53:45.058Z,12.05
2022-10-28T22:56:53.935Z,12.04
2022-10-28T23:00:00.364Z,12.00
2022-10-28T23:03:08.013Z,12.01
2022-10-28T23:06:15.887Z,12.02
2022-10-28T23:09:21.646Z,12.03
2022-10-28T23:12:30.990Z,12.05
2022-10-28T23:15:37.148Z,12.04
2022-10-28T23:18:45.220Z,12.01
2022-10-28T23:21:51.012Z,12.02
2022-10-28T23:24:57.984Z,12.05
2022-10-28T23:28:07.868Z,12.07
2022-10-28T23:31:17.480Z,12.08
2022-10-28T23:34:23.350Z,12.10
2022-10-28T23:37:29.992Z,12.11
2022-10-28T23:40:36.420Z,12.11
2022-10-28T23:43:45.785Z,12.11
2022-10-28T23:46:51.327Z,12.08
2022-10-28T23:49:57.793Z,12.08
2022-10-28T23:53:04.582Z,12.06
2022-10-28T23:56:11.279Z,12.03
2022-10-28T23:59:19.635Z,12.00
